sensor_id;sensor_type;location;lat;lon;timestamp;pressure;altitude;pressure_sealevel;temperature;humidity
27202;BME280;14717;46.924;15.474;2023-05-21T00:01:44;97883.91;;;14.02;100.00
27202;BME280;14717;46.924;15.474;2023-05-21T00:04:12;97886.31;;;13.96;100.00
27202;BME280;14717;46.924;15.474;2023-05-21T00:06:40;97880.63;;;14.01;100.00
27202;BME280;14717;46.924;15.474;2023-05-21T00:09:05;97878.16;;;14.12;100.00
27202;BME280;14717;46.924;15.474;2023-05-21T00:11:31;97875.06;;;14.14;100.00
27202;BME280;14717;46.924;15.474;2023-05-21T00:13:56;97876.00;;;14.09;100.00
27202;BME280;14717;46.924;15.474;2023-05-21T00:16:23;97882.63;;;13.87;100.00
27202;BME280;14717;46.924;15.474;2023-05-21T00:18:48;97893.22;;;13.85;100.00
27202;BME280;14717;46.924;15.474;2023-05-21T00:21:16;97883.22;;;13.97;100.00
27202;BME280;14717;46.924;15.474;2023-05-21T00:23:42;97873.66;;;13.90;100.00
27202;BME280;14717;46.924;15.474;2023-05-21T00:26:09;97874.09;;;13.97;100.00
27202;BME280;14717;46.924;15.474;2023-05-21T00:28:35;97867.25;;;14.02;100.00
27202;BME280;14717;46.924;15.474;2023-05-21T00:31:00;97871.59;;;14.08;100.00
27202;BME280;14717;46.924;15.474;2023-05-21T00:33:25;97868.38;;;14.15;100.00
27202;BME280;14717;46.924;15.474;2023-05-21T00:35:53;97865.72;;;14.10;100.00
27202;BME280;14717;46.924;15.474;2023-05-21T00:38:18;97870.31;;;14.14;100.00
27202;BME280;14717;46.924;15.474;2023-05-21T00:40:44;97871.09;;;14.06;100.00
27202;BME280;14717;46.924;15.474;2023-05-21T00:43:09;97861.47;;;14.12;100.00
27202;BME280;14717;46.924;15.474;2023-05-21T00:45:35;97860.50;;;13.95;100.00
27202;BME280;14717;46.924;15.474;2023-05-21T00:48:02;97858.09;;;13.67;100.00
27202;BME280;14717;46.924;15.474;2023-05-21T00:50:28;97868.09;;;13.68;100.00
27202;BME280;14717;46.924;15.474;2023-05-21T00:52:55;97856.81;;;13.51;100.00
27202;BME280;14717;46.924;15.474;2023-05-21T00:55:21;97857.59;;;13.65;100.00
27202;BME280;14717;46.924;15.474;2023-05-21T00:57:46;97847.22;;;13.70;100.00
27202;BME280;14717;46.924;15.474;2023-05-21T01:00:13;97840.25;;;13.60;100.00
27202;BME280;14717;46.924;15.474;2023-05-21T01:02:38;97835.47;;;13.38;100.00
27202;BME280;14717;46.924;15.474;2023-05-21T01:05:04;97837.34;;;13.29;100.00
27202;BME280;14717;46.924;15.474;2023-05-21T01:07:30;97836.00;;;13.14;100.00
27202;BME280;14717;46.924;15.474;2023-05-21T01:10:02;97834.16;;;13.09;100.00
27202;BME280;14717;46.924;15.474;2023-05-21T01:12:30;97840.22;;;13.24;100.00
27202;BME280;14717;46.924;15.474;2023-05-21T01:14:57;97848.94;;;13.31;100.00
27202;BME280;14717;46.924;15.474;2023-05-21T01:17:24;97855.69;;;13.39;100.00
27202;BME280;14717;46.924;15.474;2023-05-21T01:19:51;97860.72;;;13.50;100.00
27202;BME280;14717;46.924;15.474;2023-05-21T01:22:20;97850.97;;;13.53;100.00
27202;BME280;14717;46.924;15.474;2023-05-21T01:24:48;97854.84;;;13.52;100.00
27202;BME280;14717;46.924;15.474;2023-05-21T01:27:14;97840.06;;;13.56;100.00
27202;BME280;14717;46.924;15.474;2023-05-21T01:29:39;97838.00;;;13.48;100.00
27202;BME280;14717;46.924;15.474;2023-05-21T01:35:59;97843.78;;;13.38;100.00
27202;BME280;14717;46.924;15.474;2023-05-21T01:38:23;97841.53;;;13.27;100.00
27202;BME280;14717;46.924;15.474;2023-05-21T01:40:57;97841.53;;;13.27;100.00
27202;BME280;14717;46.924;15.474;2023-05-21T01:43:26;97838.63;;;13.45;100.00
27202;BME280;14717;46.924;15.474;2023-05-21T01:45:54;97834.97;;;13.36;100.00
27202;BME280;14717;46.924;15.474;2023-05-21T01:48:22;97832.69;;;13.38;100.00
27202;BME280;14717;46.924;15.474;2023-05-21T01:50:49;97836.69;;;13.32;100.00
27202;BME280;14717;46.924;15.474;2023-05-21T01:53:17;97830.56;;;13.09;100.00
27202;BME280;14717;46.924;15.474;2023-05-21T01:55:42;97827.78;;;13.09;100.00
27202;BME280;14717;46.924;15.474;2023-05-21T01:58:08;97829.03;;;13.03;100.00
27202;BME280;14717;46.924;15.474;2023-05-21T02:00:34;97816.59;;;13.00;100.00
27202;BME280;14717;46.924;15.474;2023-05-21T02:03:01;97818.34;;;12.83;100.00
27202;BME280;14717;46.924;15.474;2023-05-21T02:05:27;97816.50;;;12.92;100.00
27202;BME280;14717;46.924;15.474;2023-05-21T02:07:53;97823.59;;;12.98;100.00
27202;BME280;14717;46.924;15.474;2023-05-21T02:10:19;97819.59;;;13.04;100.00
27202;BME280;14717;46.924;15.474;2023-05-21T02:12:44;97818.88;;;13.12;100.00
27202;BME280;14717;46.924;15.474;2023-05-21T02:15:10;97826.66;;;12.83;100.00
27202;BME280;14717;46.924;15.474;2023-05-21T02:17:35;97831.28;;;12.87;100.00
27202;BME280;14717;46.924;15.474;2023-05-21T02:20:03;97817.09;;;12.75;100.00
27202;BME280;14717;46.924;15.474;2023-05-21T02:22:39;97813.81;;;12.74;100.00
27202;BME280;14717;46.924;15.474;2023-05-21T02:25:07;97821.28;;;12.73;100.00
27202;BME280;14717;46.924;15.474;2023-05-21T02:27:36;97818.09;;;12.66;100.00
27202;BME280;14717;46.924;15.474;2023-05-21T02:30:03;97809.59;;;12.49;100.00
27202;BME280;14717;46.924;15.474;2023-05-21T02:32:28;97812.66;;;12.61;100.00
27202;BME280;14717;46.924;15.474;2023-05-21T02:34:55;97802.88;;;12.82;100.00
27202;BME280;14717;46.924;15.474;2023-05-21T02:37:22;97804.75;;;12.68;100.00
27202;BME280;14717;46.924;15.474;2023-05-21T02:39:48;97818.63;;;12.55;100.00
27202;BME280;14717;46.924;15.474;2023-05-21T02:42:13;97820.38;;;12.64;100.00
27202;BME280;14717;46.924;15.474;2023-05-21T02:44:38;97814.63;;;12.61;100.00
27202;BME280;14717;46.924;15.474;2023-05-21T02:47:04;97801.88;;;12.73;100.00
27202;BME280;14717;46.924;15.474;2023-05-21T02:49:30;97805.59;;;12.69;100.00
27202;BME280;14717;46.924;15.474;2023-05-21T02:51:55;97807.44;;;12.60;100.00
27202;BME280;14717;46.924;15.474;2023-05-21T02:54:21;97808.88;;;12.57;100.00
27202;BME280;14717;46.924;15.474;2023-05-21T02:56:46;97812.53;;;12.39;100.00
27202;BME280;14717;46.924;15.474;2023-05-21T02:59:12;97806.91;;;12.31;100.00
27202;BME280;14717;46.924;15.474;2023-05-21T03:01:37;97809.00;;;12.21;100.00
27202;BME280;14717;46.924;15.474;2023-05-21T03:04:02;97808.19;;;12.20;100.00
27202;BME280;14717;46.924;15.474;2023-05-21T03:06:28;97796.13;;;12.30;100.00
27202;BME280;14717;46.924;15.474;2023-05-21T03:08:53;97796.91;;;12.17;100.00
27202;BME280;14717;46.924;15.474;2023-05-21T03:11:19;97796.31;;;12.20;100.00
27202;BME280;14717;46.924;15.474;2023-05-21T03:13:44;97789.97;;;12.32;100.00
27202;BME280;14717;46.924;15.474;2023-05-21T03:16:10;97795.50;;;12.32;100.00
27202;BME280;14717;46.924;15.474;2023-05-21T03:18:36;97792.16;;;12.49;100.00
27202;BME280;14717;46.924;15.474;2023-05-21T03:21:01;97795.41;;;12.37;100.00
27202;BME280;14717;46.924;15.474;2023-05-21T03:23:26;97802.06;;;12.36;100.00
27202;BME280;14717;46.924;15.474;2023-05-21T03:25:52;97805.53;;;12.29;100.00
27202;BME280;14717;46.924;15.474;2023-05-21T03:28:18;97793.44;;;12.25;100.00
27202;BME280;14717;46.924;15.474;2023-05-21T03:30:43;97799.28;;;12.23;100.00
27202;BME280;14717;46.924;15.474;2023-05-21T03:33:11;97809.63;;;12.18;100.00
27202;BME280;14717;46.924;15.474;2023-05-21T03:35:38;97816.81;;;12.19;100.00
27202;BME280;14717;46.924;15.474;2023-05-21T03:38:03;97811.69;;;12.26;100.00
27202;BME280;14717;46.924;15.474;2023-05-21T03:40:29;97799.38;;;12.18;100.00
27202;BME280;14717;46.924;15.474;2023-05-21T03:42:54;97808.59;;;12.14;100.00
27202;BME280;14717;46.924;15.474;2023-05-21T03:45:19;97815.78;;;12.15;100.00
27202;BME280;14717;46.924;15.474;2023-05-21T03:47:45;97814.53;;;12.21;100.00
27202;BME280;14717;46.924;15.474;2023-05-21T03:50:10;97819.91;;;12.31;100.00
27202;BME280;14717;46.924;15.474;2023-05-21T03:52:36;97820.75;;;12.44;100.00
27202;BME280;14717;46.924;15.474;2023-05-21T03:55:01;97829.19;;;12.53;100.00
27202;BME280;14717;46.924;15.474;2023-05-21T03:57:27;97829.28;;;12.61;100.00
27202;BME280;14717;46.924;15.474;2023-05-21T03:59:52;97827.47;;;12.70;100.00
27202;BME280;14717;46.924;15.474;2023-05-21T04:02:18;97825.72;;;12.74;100.00
27202;BME280;14717;46.924;15.474;2023-05-21T04:04:43;97835.06;;;12.78;100.00
27202;BME280;14717;46.924;15.474;2023-05-21T04:07:09;97836.13;;;12.82;100.00
27202;BME280;14717;46.924;15.474;2023-05-21T04:09:40;97838.69;;;12.92;100.00
27202;BME280;14717;46.924;15.474;2023-05-21T04:12:06;97839.72;;;12.96;100.00
27202;BME280;14717;46.924;15.474;2023-05-21T04:14:32;97829.13;;;12.98;100.00
27202;BME280;14717;46.924;15.474;2023-05-21T04:16:58;97839.91;;;12.99;100.00
27202;BME280;14717;46.924;15.474;2023-05-21T04:19:24;97838.88;;;13.09;100.00
27202;BME280;14717;46.924;15.474;2023-05-21T04:21:49;97839.41;;;13.11;100.00
27202;BME280;14717;46.924;15.474;2023-05-21T04:24:15;97840.34;;;13.19;100.00
27202;BME280;14717;46.924;15.474;2023-05-21T04:26:40;97843.63;;;13.21;100.00
27202;BME280;14717;46.924;15.474;2023-05-21T04:29:06;97842.13;;;13.37;100.00
27202;BME280;14717;46.924;15.474;2023-05-21T04:31:31;97846.44;;;13.43;100.00
27202;BME280;14717;46.924;15.474;2023-05-21T04:33:57;97845.41;;;13.53;100.00
27202;BME280;14717;46.924;15.474;2023-05-21T04:36:23;97844.34;;;13.62;100.00
27202;BME280;14717;46.924;15.474;2023-05-21T04:38:49;97853.59;;;13.71;100.00
27202;BME280;14717;46.924;15.474;2023-05-21T04:41:14;97856.25;;;13.76;100.00
27202;BME280;14717;46.924;15.474;2023-05-21T04:43:43;97856.63;;;13.83;100.00
27202;BME280;14717;46.924;15.474;2023-05-21T04:46:08;97855.06;;;13.90;100.00
27202;BME280;14717;46.924;15.474;2023-05-21T04:48:33;97858.41;;;14.01;100.00
27202;BME280;14717;46.924;15.474;2023-05-21T04:50:59;97860.97;;;14.10;100.00
27202;BME280;14717;46.924;15.474;2023-05-21T04:53:24;97860.22;;;14.18;100.00
27202;BME280;14717;46.924;15.474;2023-05-21T04:55:50;97858.13;;;14.24;100.00
27202;BME280;14717;46.924;15.474;2023-05-21T04:58:15;97864.91;;;14.31;100.00
27202;BME280;14717;46.924;15.474;2023-05-21T05:00:43;97865.09;;;14.35;100.00
27202;BME280;14717;46.924;15.474;2023-05-21T05:03:14;97873.56;;;14.30;100.00
27202;BME280;14717;46.924;15.474;2023-05-21T05:05:40;97870.66;;;14.35;100.00
27202;BME280;14717;46.924;15.474;2023-05-21T05:08:06;97873.31;;;14.40;100.00
27202;BME280;14717;46.924;15.474;2023-05-21T05:10:31;97866.19;;;14.55;100.00
27202;BME280;14717;46.924;15.474;2023-05-21T05:12:57;97867.75;;;14.70;100.00
27202;BME280;14717;46.924;15.474;2023-05-21T05:15:22;97873.72;;;14.85;100.00
27202;BME280;14717;46.924;15.474;2023-05-21T05:17:47;97872.50;;;14.99;100.00
27202;BME280;14717;46.924;15.474;2023-05-21T05:20:14;97872.97;;;15.23;100.00
27202;BME280;14717;46.924;15.474;2023-05-21T05:22:39;97873.16;;;15.35;100.00
27202;BME280;14717;46.924;15.474;2023-05-21T05:25:05;97882.22;;;15.66;100.00
27202;BME280;14717;46.924;15.474;2023-05-21T05:27:30;97883.44;;;15.98;100.00
27202;BME280;14717;46.924;15.474;2023-05-21T05:29:56;97879.19;;;16.09;100.00
27202;BME280;14717;46.924;15.474;2023-05-21T05:32:21;97877.22;;;16.26;100.00
27202;BME280;14717;46.924;15.474;2023-05-21T05:34:46;97877.88;;;16.49;100.00
27202;BME280;14717;46.924;15.474;2023-05-21T05:37:12;97878.72;;;16.41;100.00
27202;BME280;14717;46.924;15.474;2023-05-21T05:39:37;97875.91;;;16.49;100.00
27202;BME280;14717;46.924;15.474;2023-05-21T05:42:02;97879.72;;;16.45;97.91
27202;BME280;14717;46.924;15.474;2023-05-21T05:44:28;97872.63;;;16.56;97.93
27202;BME280;14717;46.924;15.474;2023-05-21T05:46:53;97879.00;;;16.73;96.44
27202;BME280;14717;46.924;15.474;2023-05-21T05:49:19;97883.72;;;16.89;94.83
27202;BME280;14717;46.924;15.474;2023-05-21T05:51:44;97880.56;;;16.91;93.72
27202;BME280;14717;46.924;15.474;2023-05-21T05:54:09;97881.97;;;17.13;95.88
27202;BME280;14717;46.924;15.474;2023-05-21T05:56:35;97871.59;;;17.31;95.94
27202;BME280;14717;46.924;15.474;2023-05-21T05:59:00;97876.72;;;17.57;93.96
27202;BME280;14717;46.924;15.474;2023-05-21T06:01:26;97887.50;;;17.67;91.31
27202;BME280;14717;46.924;15.474;2023-05-21T06:03:52;97874.13;;;17.81;89.97
27202;BME280;14717;46.924;15.474;2023-05-21T06:06:17;97886.34;;;17.97;89.49
27202;BME280;14717;46.924;15.474;2023-05-21T06:08:42;97880.06;;;18.00;90.00
27202;BME280;14717;46.924;15.474;2023-05-21T06:11:08;97882.78;;;18.08;92.01
27202;BME280;14717;46.924;15.474;2023-05-21T06:13:34;97875.75;;;18.11;88.95
27202;BME280;14717;46.924;15.474;2023-05-21T06:15:59;97876.16;;;18.21;89.97
27202;BME280;14717;46.924;15.474;2023-05-21T06:18:25;97883.31;;;18.31;90.16
27202;BME280;14717;46.924;15.474;2023-05-21T06:20:50;97882.91;;;18.40;88.68
27202;BME280;14717;46.924;15.474;2023-05-21T06:23:15;97870.31;;;18.67;87.21
27202;BME280;14717;46.924;15.474;2023-05-21T06:25:41;97876.13;;;18.62;86.02
27202;BME280;14717;46.924;15.474;2023-05-21T06:28:06;97873.28;;;18.82;85.04
27202;BME280;14717;46.924;15.474;2023-05-21T06:30:32;97875.34;;;19.05;85.36
27202;BME280;14717;46.924;15.474;2023-05-21T06:32:57;97872.91;;;19.04;83.66
27202;BME280;14717;46.924;15.474;2023-05-21T06:35:22;97874.28;;;18.98;82.93
27202;BME280;14717;46.924;15.474;2023-05-21T06:37:48;97877.47;;;18.88;83.39
27202;BME280;14717;46.924;15.474;2023-05-21T06:40:13;97871.19;;;18.91;85.63
27202;BME280;14717;46.924;15.474;2023-05-21T06:42:39;97867.34;;;19.27;82.78
27202;BME280;14717;46.924;15.474;2023-05-21T06:45:04;97876.22;;;19.41;82.23
27202;BME280;14717;46.924;15.474;2023-05-21T06:47:30;97879.97;;;19.45;83.46
27202;BME280;14717;46.924;15.474;2023-05-21T06:49:58;97872.16;;;19.51;84.05
27202;BME280;14717;46.924;15.474;2023-05-21T06:52:23;97885.09;;;19.55;82.19
27202;BME280;14717;46.924;15.474;2023-05-21T06:54:50;97886.28;;;19.66;80.16
27202;BME280;14717;46.924;15.474;2023-05-21T06:57:16;97878.72;;;19.90;81.64
27202;BME280;14717;46.924;15.474;2023-05-21T06:59:41;97890.38;;;20.04;80.00
27202;BME280;14717;46.924;15.474;2023-05-21T07:02:06;97891.19;;;20.16;80.62
27202;BME280;14717;46.924;15.474;2023-05-21T07:04:32;97885.22;;;20.06;79.11
27202;BME280;14717;46.924;15.474;2023-05-21T07:06:59;97888.53;;;20.08;77.15
27202;BME280;14717;46.924;15.474;2023-05-21T07:09:24;97888.78;;;20.42;77.84
27202;BME280;14717;46.924;15.474;2023-05-21T07:11:50;97879.72;;;20.72;74.48
27202;BME280;14717;46.924;15.474;2023-05-21T07:14:17;97885.16;;;20.81;73.39
27202;BME280;14717;46.924;15.474;2023-05-21T07:16:42;97886.25;;;20.92;76.70
27202;BME280;14717;46.924;15.474;2023-05-21T07:19:07;97886.31;;;21.07;75.66
27202;BME280;14717;46.924;15.474;2023-05-21T07:21:33;97888.03;;;21.11;75.66
27202;BME280;14717;46.924;15.474;2023-05-21T07:23:58;97878.78;;;20.95;74.65
27202;BME280;14717;46.924;15.474;2023-05-21T07:26:24;97872.19;;;21.19;75.43
27202;BME280;14717;46.924;15.474;2023-05-21T07:28:50;97870.97;;;21.47;73.14
27202;BME280;14717;46.924;15.474;2023-05-21T07:31:15;97870.75;;;21.40;72.51
27202;BME280;14717;46.924;15.474;2023-05-21T07:33:41;97868.28;;;21.08;73.79
27202;BME280;14717;46.924;15.474;2023-05-21T07:36:06;97877.53;;;20.81;72.79
27202;BME280;14717;46.924;15.474;2023-05-21T07:38:32;97874.56;;;20.90;74.44
27202;BME280;14717;46.924;15.474;2023-05-21T07:40:57;97868.59;;;20.91;74.21
27202;BME280;14717;46.924;15.474;2023-05-21T07:43:22;97866.06;;;21.44;74.91
27202;BME280;14717;46.924;15.474;2023-05-21T07:45:48;97863.41;;;21.35;72.84
27202;BME280;14717;46.924;15.474;2023-05-21T07:48:13;97871.69;;;21.44;73.53
27202;BME280;14717;46.924;15.474;2023-05-21T07:50:39;97868.63;;;21.49;74.09
27202;BME280;14717;46.924;15.474;2023-05-21T07:53:04;97869.03;;;21.35;73.90
27202;BME280;14717;46.924;15.474;2023-05-21T07:55:30;97875.91;;;21.23;71.51
27202;BME280;14717;46.924;15.474;2023-05-21T07:57:55;97877.06;;;21.64;69.19
27202;BME280;14717;46.924;15.474;2023-05-21T08:00:22;97870.59;;;21.94;67.07
27202;BME280;14717;46.924;15.474;2023-05-21T08:02:47;97873.28;;;22.22;66.98
27202;BME280;14717;46.924;15.474;2023-05-21T08:05:13;97875.31;;;22.40;67.87
27202;BME280;14717;46.924;15.474;2023-05-21T08:07:40;97874.38;;;22.51;68.54
27202;BME280;14717;46.924;15.474;2023-05-21T08:10:06;97867.25;;;22.23;66.44
27202;BME280;14717;46.924;15.474;2023-05-21T08:12:33;97877.56;;;22.00;67.17
27202;BME280;14717;46.924;15.474;2023-05-21T08:14:58;97875.97;;;21.84;72.04
27202;BME280;14717;46.924;15.474;2023-05-21T08:17:23;97877.66;;;22.19;68.34
27202;BME280;14717;46.924;15.474;2023-05-21T08:19:49;97872.56;;;22.09;65.62
27202;BME280;14717;46.924;15.474;2023-05-21T08:22:14;97882.00;;;22.17;66.33
27202;BME280;14717;46.924;15.474;2023-05-21T08:24:40;97875.41;;;22.43;64.27
27202;BME280;14717;46.924;15.474;2023-05-21T08:27:05;97874.59;;;22.62;63.92
27202;BME280;14717;46.924;15.474;2023-05-21T08:29:32;97874.06;;;22.75;60.96
27202;BME280;14717;46.924;15.474;2023-05-21T08:31:57;97880.13;;;22.92;61.98
27202;BME280;14717;46.924;15.474;2023-05-21T08:34:22;97883.88;;;22.28;64.18
27202;BME280;14717;46.924;15.474;2023-05-21T08:36:48;97870.13;;;22.61;64.57
27202;BME280;14717;46.924;15.474;2023-05-21T08:39:14;97876.47;;;23.10;60.41
27202;BME280;14717;46.924;15.474;2023-05-21T08:41:40;97878.19;;;23.37;60.24
27202;BME280;14717;46.924;15.474;2023-05-21T08:44:11;97884.84;;;23.48;58.75
27202;BME280;14717;46.924;15.474;2023-05-21T08:46:39;97877.31;;;23.55;59.89
27202;BME280;14717;46.924;15.474;2023-05-21T08:49:11;97885.72;;;23.52;59.37
27202;BME280;14717;46.924;15.474;2023-05-21T08:51:37;97882.03;;;23.48;57.58
27202;BME280;14717;46.924;15.474;2023-05-21T08:54:06;97874.19;;;23.60;60.80
27202;BME280;14717;46.924;15.474;2023-05-21T08:56:33;97887.50;;;23.82;60.74
27202;BME280;14717;46.924;15.474;2023-05-21T08:59:00;97877.56;;;24.14;59.37
27202;BME280;14717;46.924;15.474;2023-05-21T09:01:26;97882.94;;;24.22;56.83
27202;BME280;14717;46.924;15.474;2023-05-21T09:03:55;97886.34;;;24.09;55.85
27202;BME280;14717;46.924;15.474;2023-05-21T09:06:22;97883.91;;;24.07;55.20
27202;BME280;14717;46.924;15.474;2023-05-21T09:08:58;97879.38;;;24.03;53.45
27202;BME280;14717;46.924;15.474;2023-05-21T09:11:25;97873.41;;;24.08;55.44
27202;BME280;14717;46.924;15.474;2023-05-21T09:13:51;97880.09;;;24.22;55.34
27202;BME280;14717;46.924;15.474;2023-05-21T09:16:18;97884.78;;;23.89;56.59
27202;BME280;14717;46.924;15.474;2023-05-21T09:18:44;97883.84;;;24.04;56.89
27202;BME280;14717;46.924;15.474;2023-05-21T09:21:26;97879.19;;;24.40;57.86
27202;BME280;14717;46.924;15.474;2023-05-21T09:23:54;97888.94;;;24.72;56.28
27202;BME280;14717;46.924;15.474;2023-05-21T09:26:20;97892.06;;;24.93;54.92
27202;BME280;14717;46.924;15.474;2023-05-21T09:28:46;97887.50;;;24.85;53.37
27202;BME280;14717;46.924;15.474;2023-05-21T09:31:11;97880.50;;;25.05;53.83
27202;BME280;14717;46.924;15.474;2023-05-21T09:33:44;97888.81;;;25.24;52.97
27202;BME280;14717;46.924;15.474;2023-05-21T09:36:10;97889.06;;;24.82;53.18
27202;BME280;14717;46.924;15.474;2023-05-21T09:38:38;97884.19;;;24.80;55.01
27202;BME280;14717;46.924;15.474;2023-05-21T09:41:04;97888.34;;;24.89;54.27
27202;BME280;14717;46.924;15.474;2023-05-21T09:43:31;97887.91;;;24.87;52.57
27202;BME280;14717;46.924;15.474;2023-05-21T09:45:56;97876.13;;;25.11;54.20
27202;BME280;14717;46.924;15.474;2023-05-21T09:48:39;97879.13;;;25.25;54.83
27202;BME280;14717;46.924;15.474;2023-05-21T09:51:15;97877.78;;;24.86;51.93
27202;BME280;14717;46.924;15.474;2023-05-21T09:53:53;97875.69;;;25.09;50.07
27202;BME280;14717;46.924;15.474;2023-05-21T09:56:20;97876.78;;;24.68;48.18
27202;BME280;14717;46.924;15.474;2023-05-21T09:58:56;97866.28;;;24.98;47.73
27202;BME280;14717;46.924;15.474;2023-05-21T10:01:23;97869.84;;;24.95;48.86
27202;BME280;14717;46.924;15.474;2023-05-21T10:03:54;97879.22;;;25.35;50.39
27202;BME280;14717;46.924;15.474;2023-05-21T10:06:27;97877.06;;;25.58;51.95
27202;BME280;14717;46.924;15.474;2023-05-21T10:08:55;97876.13;;;25.86;48.45
27202;BME280;14717;46.924;15.474;2023-05-21T10:11:24;97880.97;;;25.46;47.32
27202;BME280;14717;46.924;15.474;2023-05-21T10:13:56;97879.63;;;25.69;46.55
27202;BME280;14717;46.924;15.474;2023-05-21T10:16:22;97874.78;;;25.70;45.30
27202;BME280;14717;46.924;15.474;2023-05-21T10:18:48;97880.47;;;25.70;46.10
27202;BME280;14717;46.924;15.474;2023-05-21T10:21:14;97862.81;;;25.87;47.49
27202;BME280;14717;46.924;15.474;2023-05-21T10:23:41;97866.88;;;25.93;45.33
27202;BME280;14717;46.924;15.474;2023-05-21T10:26:09;97871.47;;;25.28;47.95
27202;BME280;14717;46.924;15.474;2023-05-21T10:28:35;97878.41;;;24.18;49.08
27202;BME280;14717;46.924;15.474;2023-05-21T10:31:02;97871.56;;;23.93;50.69
27202;BME280;14717;46.924;15.474;2023-05-21T10:33:28;97874.81;;;23.95;50.27
27202;BME280;14717;46.924;15.474;2023-05-21T10:35:57;97871.94;;;23.69;53.62
27202;BME280;14717;46.924;15.474;2023-05-21T10:38:23;97869.47;;;23.90;52.16
27202;BME280;14717;46.924;15.474;2023-05-21T10:40:49;97864.88;;;24.04;52.53
27202;BME280;14717;46.924;15.474;2023-05-21T10:43:55;97869.25;;;23.76;52.08
27202;BME280;14717;46.924;15.474;2023-05-21T10:46:41;97858.34;;;24.00;49.58
27202;BME280;14717;46.924;15.474;2023-05-21T10:52:12;97865.91;;;23.93;51.22
27202;BME280;14717;46.924;15.474;2023-05-21T10:59:59;97858.50;;;24.07;48.92
27202;BME280;14717;46.924;15.474;2023-05-21T11:02:25;97858.22;;;24.16;49.41
27202;BME280;14717;46.924;15.474;2023-05-21T11:05:00;97860.59;;;24.14;49.03
27202;BME280;14717;46.924;15.474;2023-05-21T11:07:50;97859.50;;;24.22;50.06
27202;BME280;14717;46.924;15.474;2023-05-21T11:10:36;97856.63;;;24.18;50.62
27202;BME280;14717;46.924;15.474;2023-05-21T11:13:15;97847.84;;;24.49;48.83
27202;BME280;14717;46.924;15.474;2023-05-21T11:18:22;97851.31;;;24.97;47.26
27202;BME280;14717;46.924;15.474;2023-05-21T11:20:50;97851.69;;;24.96;46.14
27202;BME280;14717;46.924;15.474;2023-05-21T11:23:17;97847.78;;;25.43;46.38
27202;BME280;14717;46.924;15.474;2023-05-21T11:25:42;97846.78;;;25.25;47.48
27202;BME280;14717;46.924;15.474;2023-05-21T11:28:08;97846.63;;;25.12;44.65
27202;BME280;14717;46.924;15.474;2023-05-21T11:30:33;97838.47;;;25.39;44.38
27202;BME280;14717;46.924;15.474;2023-05-21T11:35:58;97839.03;;;25.55;45.03
27202;BME280;14717;46.924;15.474;2023-05-21T11:38:29;97834.47;;;25.87;45.05
27202;BME280;14717;46.924;15.474;2023-05-21T11:41:02;97831.88;;;26.14;43.84
27202;BME280;14717;46.924;15.474;2023-05-21T11:43:27;97831.59;;;26.30;43.52
27202;BME280;14717;46.924;15.474;2023-05-21T11:45:53;97822.47;;;26.60;44.94
27202;BME280;14717;46.924;15.474;2023-05-21T11:48:21;97834.50;;;26.44;42.73
27202;BME280;14717;46.924;15.474;2023-05-21T11:50:48;97822.81;;;26.52;42.55
27202;BME280;14717;46.924;15.474;2023-05-21T11:53:13;97819.63;;;26.60;43.41
27202;BME280;14717;46.924;15.474;2023-05-21T11:55:39;97826.78;;;25.84;43.88
27202;BME280;14717;46.924;15.474;2023-05-21T11:58:11;97823.50;;;25.39;43.27
27202;BME280;14717;46.924;15.474;2023-05-21T12:00:40;97825.25;;;25.54;43.22
27202;BME280;14717;46.924;15.474;2023-05-21T12:03:06;97818.06;;;25.24;44.46
27202;BME280;14717;46.924;15.474;2023-05-21T12:05:48;97816.59;;;25.36;40.59
27202;BME280;14717;46.924;15.474;2023-05-21T12:08:23;97819.59;;;25.97;41.07
27202;BME280;14717;46.924;15.474;2023-05-21T12:10:58;97820.94;;;26.16;40.04
27202;BME280;14717;46.924;15.474;2023-05-21T12:13:24;97805.78;;;25.92;40.77
27202;BME280;14717;46.924;15.474;2023-05-21T12:15:52;97810.44;;;26.20;40.08
27202;BME280;14717;46.924;15.474;2023-05-21T12:18:18;97815.09;;;25.92;41.49
27202;BME280;14717;46.924;15.474;2023-05-21T12:20:43;97804.56;;;25.93;42.91
27202;BME280;14717;46.924;15.474;2023-05-21T12:23:18;97802.28;;;26.12;41.54
27202;BME280;14717;46.924;15.474;2023-05-21T12:25:44;97806.94;;;25.84;40.87
27202;BME280;14717;46.924;15.474;2023-05-21T12:28:10;97802.84;;;26.31;39.46
27202;BME280;14717;46.924;15.474;2023-05-21T12:30:36;97803.44;;;26.68;39.01
27202;BME280;14717;46.924;15.474;2023-05-21T12:33:01;97792.97;;;26.79;39.26
27202;BME280;14717;46.924;15.474;2023-05-21T12:35:29;97793.75;;;26.76;37.73
27202;BME280;14717;46.924;15.474;2023-05-21T12:37:54;97792.72;;;27.18;37.60
27202;BME280;14717;46.924;15.474;2023-05-21T12:40:20;97788.28;;;27.28;36.45
27202;BME280;14717;46.924;15.474;2023-05-21T12:42:46;97782.94;;;27.02;36.52
27202;BME280;14717;46.924;15.474;2023-05-21T12:45:12;97778.06;;;27.06;37.10
27202;BME280;14717;46.924;15.474;2023-05-21T12:47:37;97781.78;;;27.27;40.66
27202;BME280;14717;46.924;15.474;2023-05-21T12:50:06;97776.56;;;27.46;36.76
27202;BME280;14717;46.924;15.474;2023-05-21T12:52:32;97775.69;;;27.11;36.59
27202;BME280;14717;46.924;15.474;2023-05-21T12:54:58;97770.38;;;27.03;39.21
27202;BME280;14717;46.924;15.474;2023-05-21T12:57:34;97771.75;;;26.49;39.54
27202;BME280;14717;46.924;15.474;2023-05-21T13:00:00;97776.13;;;26.32;38.31
27202;BME280;14717;46.924;15.474;2023-05-21T13:02:27;97773.34;;;26.39;37.36